sensor_id;sensor_type;location;lat;lon;timestamp;P1;durP1;ratioP1;P2;durP2;ratioP2
7985;SDS011;4038;42.612;23.066;2022-08-19T00:01:28;28.17;;;26.13;;
7985;SDS011;4038;42.612;23.066;2022-08-19T00:03:55;27.27;;;25.48;;
7985;SDS011;4038;42.612;23.066;2022-08-19T00:06:21;27.50;;;25.60;;
7985;SDS011;4038;42.612;23.066;2022-08-19T00:08:46;27.88;;;25.70;;
7985;SDS011;4038;42.612;23.066;2022-08-19T00:11:13;27.75;;;25.65;;
7985;SDS011;4038;42.612;23.066;2022-08-19T00:13:38;27.95;;;25.95;;
7985;SDS011;4038;42.612;23.066;2022-08-19T00:16:04;27.25;;;25.35;;
7985;SDS011;4038;42.612;23.066;2022-08-19T00:18:31;26.63;;;24.83;;
7985;SDS011;4038;42.612;23.066;2022-08-19T00:20:56;26.48;;;24.40;;
7985;SDS011;4038;42.612;23.066;2022-08-19T00:23:22;27.33;;;25.52;;
7985;SDS011;4038;42.612;23.066;2022-08-19T00:25:48;27.92;;;26.02;;
7985;SDS011;4038;42.612;23.066;2022-08-19T00:28:13;27.42;;;25.42;;
7985;SDS011;4038;42.612;23.066;2022-08-19T00:30:39;28.23;;;26.13;;
7985;SDS011;4038;42.612;23.066;2022-08-19T00:33:05;27.73;;;25.83;;
7985;SDS011;4038;42.612;23.066;2022-08-19T00:35:32;27.63;;;25.52;;
7985;SDS011;4038;42.612;23.066;2022-08-19T00:37:58;27.38;;;25.48;;
7985;SDS011;4038;42.612;23.066;2022-08-19T00:40:24;27.77;;;25.80;;
7985;SDS011;4038;42.612;23.066;2022-08-19T00:42:50;29.27;;;26.98;;
7985;SDS011;4038;42.612;23.066;2022-08-19T00:45:23;29.02;;;26.77;;
7985;SDS011;4038;42.612;23.066;2022-08-19T00:47:50;28.95;;;26.70;;
7985;SDS011;4038;42.612;23.066;2022-08-19T00:50:16;29.30;;;27.00;;
7985;SDS011;4038;42.612;23.066;2022-08-19T00:52:44;28.83;;;26.67;;
7985;SDS011;4038;42.612;23.066;2022-08-19T00:55:16;29.73;;;27.52;;
7985;SDS011;4038;42.612;23.066;2022-08-19T00:57:51;29.58;;;27.27;;
7985;SDS011;4038;42.612;23.066;2022-08-19T01:00:20;28.38;;;26.27;;
7985;SDS011;4038;42.612;23.066;2022-08-19T01:02:46;27.73;;;25.83;;
7985;SDS011;4038;42.612;23.066;2022-08-19T01:05:16;26.15;;;24.45;;
7985;SDS011;4038;42.612;23.066;2022-08-19T01:07:46;28.20;;;26.20;;
7985;SDS011;4038;42.612;23.066;2022-08-19T01:10:14;27.48;;;25.67;;
7985;SDS011;4038;42.612;23.066;2022-08-19T01:12:43;26.73;;;24.92;;
7985;SDS011;4038;42.612;23.066;2022-08-19T01:15:10;26.98;;;25.17;;
7985;SDS011;4038;42.612;23.066;2022-08-19T01:17:39;27.08;;;25.17;;
7985;SDS011;4038;42.612;23.066;2022-08-19T01:20:06;28.08;;;26.08;;
7985;SDS011;4038;42.612;23.066;2022-08-19T01:22:45;27.30;;;25.10;;
7985;SDS011;4038;42.612;23.066;2022-08-19T01:25:14;27.73;;;25.83;;
7985;SDS011;4038;42.612;23.066;2022-08-19T01:27:43;27.02;;;25.13;;
7985;SDS011;4038;42.612;23.066;2022-08-19T01:30:16;27.27;;;25.20;;
7985;SDS011;4038;42.612;23.066;2022-08-19T01:32:49;27.27;;;25.38;;
7985;SDS011;4038;42.612;23.066;2022-08-19T01:35:15;27.83;;;25.48;;
7985;SDS011;4038;42.612;23.066;2022-08-19T01:37:47;26.42;;;24.63;;
7985;SDS011;4038;42.612;23.066;2022-08-19T01:40:15;27.33;;;25.42;;
7985;SDS011;4038;42.612;23.066;2022-08-19T01:42:42;27.33;;;25.52;;
7985;SDS011;4038;42.612;23.066;2022-08-19T01:45:07;27.75;;;25.65;;
7985;SDS011;4038;42.612;23.066;2022-08-19T01:47:37;27.00;;;25.20;;
7985;SDS011;4038;42.612;23.066;2022-08-19T01:50:04;27.73;;;25.75;;
7985;SDS011;4038;42.612;23.066;2022-08-19T01:52:31;28.25;;;25.63;;
7985;SDS011;4038;42.612;23.066;2022-08-19T01:54:56;28.05;;;25.95;;
7985;SDS011;4038;42.612;23.066;2022-08-19T01:57:22;27.38;;;25.42;;
7985;SDS011;4038;42.612;23.066;2022-08-19T01:59:47;29.20;;;27.00;;
7985;SDS011;4038;42.612;23.066;2022-08-19T02:02:13;29.15;;;27.13;;
7985;SDS011;4038;42.612;23.066;2022-08-19T02:04:38;28.75;;;26.65;;
7985;SDS011;4038;42.612;23.066;2022-08-19T02:07:04;29.75;;;27.30;;
7985;SDS011;4038;42.612;23.066;2022-08-19T02:09:31;29.08;;;27.02;;
7985;SDS011;4038;42.612;23.066;2022-08-19T02:11:57;28.27;;;25.98;;
7985;SDS011;4038;42.612;23.066;2022-08-19T02:14:22;28.85;;;26.38;;
7985;SDS011;4038;42.612;23.066;2022-08-19T02:16:48;29.45;;;26.98;;
7985;SDS011;4038;42.612;23.066;2022-08-19T02:19:13;29.70;;;27.00;;
7985;SDS011;4038;42.612;23.066;2022-08-19T02:21:39;28.02;;;25.90;;
7985;SDS011;4038;42.612;23.066;2022-08-19T02:24:05;29.67;;;26.90;;
7985;SDS011;4038;42.612;23.066;2022-08-19T02:26:31;29.25;;;27.13;;
7985;SDS011;4038;42.612;23.066;2022-08-19T02:28:57;28.55;;;26.27;;
7985;SDS011;4038;42.612;23.066;2022-08-19T02:31:23;28.33;;;26.33;;
7985;SDS011;4038;42.612;23.066;2022-08-19T02:33:49;27.98;;;26.00;;
7985;SDS011;4038;42.612;23.066;2022-08-19T02:36:17;28.15;;;26.15;;
7985;SDS011;4038;42.612;23.066;2022-08-19T02:38:43;28.42;;;26.45;;
7985;SDS011;4038;42.612;23.066;2022-08-19T02:41:14;27.67;;;25.77;;
7985;SDS011;4038;42.612;23.066;2022-08-19T02:43:44;27.92;;;26.02;;
7985;SDS011;4038;42.612;23.066;2022-08-19T02:46:11;27.88;;;25.77;;
7985;SDS011;4038;42.612;23.066;2022-08-19T02:48:48;28.75;;;26.63;;
7985;SDS011;4038;42.612;23.066;2022-08-19T02:51:22;29.02;;;26.92;;
7985;SDS011;4038;42.612;23.066;2022-08-19T02:53:50;28.80;;;26.70;;
7985;SDS011;4038;42.612;23.066;2022-08-19T02:56:16;27.70;;;25.65;;
7985;SDS011;4038;42.612;23.066;2022-08-19T02:58:42;28.77;;;26.58;;
7985;SDS011;4038;42.612;23.066;2022-08-19T03:01:08;27.50;;;25.40;;
7985;SDS011;4038;42.612;23.066;2022-08-19T03:03:35;28.77;;;26.83;;
7985;SDS011;4038;42.612;23.066;2022-08-19T03:06:08;27.83;;;25.90;;
7985;SDS011;4038;42.612;23.066;2022-08-19T03:08:38;27.85;;;25.67;;
7985;SDS011;4038;42.612;23.066;2022-08-19T03:11:04;27.58;;;25.77;;
7985;SDS011;4038;42.612;23.066;2022-08-19T03:13:30;27.92;;;25.92;;
7985;SDS011;4038;42.612;23.066;2022-08-19T03:15:56;27.70;;;25.70;;
7985;SDS011;4038;42.612;23.066;2022-08-19T03:18:22;27.98;;;26.02;;
7985;SDS011;4038;42.612;23.066;2022-08-19T03:20:48;28.45;;;26.23;;
7985;SDS011;4038;42.612;23.066;2022-08-19T03:23:17;28.88;;;26.75;;
7985;SDS011;4038;42.612;23.066;2022-08-19T03:25:44;29.15;;;26.60;;
7985;SDS011;4038;42.612;23.066;2022-08-19T03:28:12;29.73;;;27.30;;
7985;SDS011;4038;42.612;23.066;2022-08-19T03:30:39;28.65;;;26.58;;
7985;SDS011;4038;42.612;23.066;2022-08-19T03:33:10;30.75;;;27.98;;
7985;SDS011;4038;42.612;23.066;2022-08-19T03:35:37;30.00;;;27.52;;
7985;SDS011;4038;42.612;23.066;2022-08-19T03:38:03;29.63;;;26.73;;
7985;SDS011;4038;42.612;23.066;2022-08-19T03:40:31;31.08;;;28.00;;
7985;SDS011;4038;42.612;23.066;2022-08-19T03:42:57;48.45;;;29.35;;
7985;SDS011;4038;42.612;23.066;2022-08-19T03:45:22;31.98;;;29.13;;
7985;SDS011;4038;42.612;23.066;2022-08-19T03:47:48;32.83;;;29.02;;
7985;SDS011;4038;42.612;23.066;2022-08-19T03:50:14;29.88;;;27.58;;
7985;SDS011;4038;42.612;23.066;2022-08-19T03:52:40;30.70;;;27.77;;
7985;SDS011;4038;42.612;23.066;2022-08-19T03:55:06;30.45;;;28.13;;
7985;SDS011;4038;42.612;23.066;2022-08-19T03:57:32;29.33;;;27.33;;
7985;SDS011;4038;42.612;23.066;2022-08-19T03:59:59;30.48;;;28.02;;
7985;SDS011;4038;42.612;23.066;2022-08-19T04:02:26;29.85;;;27.40;;
7985;SDS011;4038;42.612;23.066;2022-08-19T04:04:52;29.33;;;27.25;;
7985;SDS011;4038;42.612;23.066;2022-08-19T04:07:19;30.25;;;27.85;;
7985;SDS011;4038;42.612;23.066;2022-08-19T04:09:46;30.77;;;28.48;;
7985;SDS011;4038;42.612;23.066;2022-08-19T04:12:12;29.42;;;27.33;;
7985;SDS011;4038;42.612;23.066;2022-08-19T04:14:38;30.08;;;27.77;;
7985;SDS011;4038;42.612;23.066;2022-08-19T04:17:04;29.88;;;27.58;;
7985;SDS011;4038;42.612;23.066;2022-08-19T04:19:31;29.15;;;27.02;;
7985;SDS011;4038;42.612;23.066;2022-08-19T04:21:57;28.70;;;26.63;;
7985;SDS011;4038;42.612;23.066;2022-08-19T04:24:23;29.60;;;27.40;;
7985;SDS011;4038;42.612;23.066;2022-08-19T04:26:51;30.48;;;27.95;;
7985;SDS011;4038;42.612;23.066;2022-08-19T04:29:18;29.98;;;27.67;;
7985;SDS011;4038;42.612;23.066;2022-08-19T04:31:47;30.50;;;28.17;;
7985;SDS011;4038;42.612;23.066;2022-08-19T04:34:14;29.85;;;27.52;;
7985;SDS011;4038;42.612;23.066;2022-08-19T04:36:44;30.20;;;28.00;;
7985;SDS011;4038;42.612;23.066;2022-08-19T04:39:11;29.80;;;27.60;;
7985;SDS011;4038;42.612;23.066;2022-08-19T04:41:39;30.45;;;28.15;;
7985;SDS011;4038;42.612;23.066;2022-08-19T04:44:23;31.58;;;28.95;;
7985;SDS011;4038;42.612;23.066;2022-08-19T04:46:49;31.35;;;28.48;;
7985;SDS011;4038;42.612;23.066;2022-08-19T04:49:16;31.30;;;28.80;;
7985;SDS011;4038;42.612;23.066;2022-08-19T04:51:49;30.77;;;28.38;;
7985;SDS011;4038;42.612;23.066;2022-08-19T04:54:17;31.27;;;28.73;;
7985;SDS011;4038;42.612;23.066;2022-08-19T04:56:47;30.83;;;28.33;;
7985;SDS011;4038;42.612;23.066;2022-08-19T04:59:14;31.23;;;28.65;;
7985;SDS011;4038;42.612;23.066;2022-08-19T05:01:42;30.27;;;27.75;;
7985;SDS011;4038;42.612;23.066;2022-08-19T05:04:08;29.77;;;27.40;;
7985;SDS011;4038;42.612;23.066;2022-08-19T05:06:35;29.80;;;27.30;;
7985;SDS011;4038;42.612;23.066;2022-08-19T05:09:02;29.33;;;26.77;;
7985;SDS011;4038;42.612;23.066;2022-08-19T05:11:30;30.10;;;27.63;;
7985;SDS011;4038;42.612;23.066;2022-08-19T05:13:57;29.60;;;26.92;;
7985;SDS011;4038;42.612;23.066;2022-08-19T05:16:24;31.20;;;28.13;;
7985;SDS011;4038;42.612;23.066;2022-08-19T05:18:51;30.83;;;27.98;;
7985;SDS011;4038;42.612;23.066;2022-08-19T05:21:35;31.90;;;28.67;;
7985;SDS011;4038;42.612;23.066;2022-08-19T05:24:20;33.42;;;30.40;;
7985;SDS011;4038;42.612;23.066;2022-08-19T05:26:47;32.00;;;28.83;;
7985;SDS011;4038;42.612;23.066;2022-08-19T05:29:15;33.08;;;29.67;;
7985;SDS011;4038;42.612;23.066;2022-08-19T05:31:42;31.05;;;28.17;;
7985;SDS011;4038;42.612;23.066;2022-08-19T05:34:08;30.33;;;27.63;;
7985;SDS011;4038;42.612;23.066;2022-08-19T05:36:37;30.42;;;27.30;;
7985;SDS011;4038;42.612;23.066;2022-08-19T05:39:04;30.48;;;27.60;;
7985;SDS011;4038;42.612;23.066;2022-08-19T05:41:31;29.75;;;27.33;;
7985;SDS011;4038;42.612;23.066;2022-08-19T05:43:57;30.67;;;28.02;;
7985;SDS011;4038;42.612;23.066;2022-08-19T05:46:23;29.77;;;27.02;;
7985;SDS011;4038;42.612;23.066;2022-08-19T05:48:49;30.02;;;27.08;;
7985;SDS011;4038;42.612;23.066;2022-08-19T05:51:14;33.35;;;26.60;;
7985;SDS011;4038;42.612;23.066;2022-08-19T05:53:41;30.20;;;26.10;;
7985;SDS011;4038;42.612;23.066;2022-08-19T05:56:08;33.65;;;26.42;;
7985;SDS011;4038;42.612;23.066;2022-08-19T05:58:37;28.38;;;25.80;;
7985;SDS011;4038;42.612;23.066;2022-08-19T06:01:04;28.45;;;25.90;;
7985;SDS011;4038;42.612;23.066;2022-08-19T06:03:35;27.77;;;25.13;;
7985;SDS011;4038;42.612;23.066;2022-08-19T06:06:02;29.77;;;25.45;;
7985;SDS011;4038;42.612;23.066;2022-08-19T06:08:28;28.73;;;26.02;;
7985;SDS011;4038;42.612;23.066;2022-08-19T06:10:54;28.58;;;25.98;;
7985;SDS011;4038;42.612;23.066;2022-08-19T06:13:20;28.23;;;25.50;;
7985;SDS011;4038;42.612;23.066;2022-08-19T06:15:47;28.65;;;25.80;;
7985;SDS011;4038;42.612;23.066;2022-08-19T06:18:13;29.60;;;26.45;;
7985;SDS011;4038;42.612;23.066;2022-08-19T06:20:40;28.73;;;26.23;;
7985;SDS011;4038;42.612;23.066;2022-08-19T06:23:06;27.38;;;24.98;;
7985;SDS011;4038;42.612;23.066;2022-08-19T06:25:33;26.55;;;24.45;;
7985;SDS011;4038;42.612;23.066;2022-08-19T06:27:58;26.63;;;24.52;;
7985;SDS011;4038;42.612;23.066;2022-08-19T06:30:24;26.73;;;24.27;;
7985;SDS011;4038;42.612;23.066;2022-08-19T06:32:49;25.83;;;23.85;;
7985;SDS011;4038;42.612;23.066;2022-08-19T06:35:15;27.48;;;25.17;;
7985;SDS011;4038;42.612;23.066;2022-08-19T06:37:40;27.27;;;24.88;;
7985;SDS011;4038;42.612;23.066;2022-08-19T06:40:06;27.17;;;24.73;;
7985;SDS011;4038;42.612;23.066;2022-08-19T06:42:34;26.95;;;24.73;;
7985;SDS011;4038;42.612;23.066;2022-08-19T06:45:00;27.92;;;25.67;;
7985;SDS011;4038;42.612;23.066;2022-08-19T06:47:28;28.13;;;25.45;;
7985;SDS011;4038;42.612;23.066;2022-08-19T06:49:54;30.17;;;25.80;;
7985;SDS011;4038;42.612;23.066;2022-08-19T06:52:25;31.48;;;27.48;;
7985;SDS011;4038;42.612;23.066;2022-08-19T06:54:50;37.22;;;28.50;;
7985;SDS011;4038;42.612;23.066;2022-08-19T06:57:15;37.17;;;28.33;;
7985;SDS011;4038;42.612;23.066;2022-08-19T06:59:41;33.05;;;28.02;;
7985;SDS011;4038;42.612;23.066;2022-08-19T07:02:06;41.72;;;28.75;;
7985;SDS011;4038;42.612;23.066;2022-08-19T07:04:33;30.02;;;26.70;;
7985;SDS011;4038;42.612;23.066;2022-08-19T07:07:02;29.45;;;26.33;;
7985;SDS011;4038;42.612;23.066;2022-08-19T07:09:34;28.73;;;25.80;;
7985;SDS011;4038;42.612;23.066;2022-08-19T07:12:02;28.25;;;25.02;;
7985;SDS011;4038;42.612;23.066;2022-08-19T07:14:29;31.40;;;25.15;;
7985;SDS011;4038;42.612;23.066;2022-08-19T07:16:55;27.17;;;24.85;;
7985;SDS011;4038;42.612;23.066;2022-08-19T07:19:21;27.00;;;24.40;;
7985;SDS011;4038;42.612;23.066;2022-08-19T07:21:50;27.30;;;24.90;;
7985;SDS011;4038;42.612;23.066;2022-08-19T07:24:17;26.65;;;24.45;;
7985;SDS011;4038;42.612;23.066;2022-08-19T07:26:44;27.27;;;24.88;;
7985;SDS011;4038;42.612;23.066;2022-08-19T07:29:10;27.30;;;24.95;;
7985;SDS011;4038;42.612;23.066;2022-08-19T07:31:36;28.10;;;25.73;;
7985;SDS011;4038;42.612;23.066;2022-08-19T07:34:03;28.00;;;25.45;;
7985;SDS011;4038;42.612;23.066;2022-08-19T07:36:38;27.55;;;25.42;;
7985;SDS011;4038;42.612;23.066;2022-08-19T07:39:10;27.95;;;25.27;;
7985;SDS011;4038;42.612;23.066;2022-08-19T07:41:38;27.10;;;25.05;;
7985;SDS011;4038;42.612;23.066;2022-08-19T07:44:05;28.75;;;25.88;;
7985;SDS011;4038;42.612;23.066;2022-08-19T07:46:32;27.00;;;24.55;;
7985;SDS011;4038;42.612;23.066;2022-08-19T07:49:00;26.35;;;24.08;;
7985;SDS011;4038;42.612;23.066;2022-08-19T07:51:26;27.15;;;24.77;;
7985;SDS011;4038;42.612;23.066;2022-08-19T07:53:52;29.60;;;24.42;;
7985;SDS011;4038;42.612;23.066;2022-08-19T07:56:18;27.30;;;25.13;;
7985;SDS011;4038;42.612;23.066;2022-08-19T07:58:46;26.30;;;23.98;;
7985;SDS011;4038;42.612;23.066;2022-08-19T08:01:13;26.33;;;23.73;;
7985;SDS011;4038;42.612;23.066;2022-08-19T08:03:41;27.27;;;24.77;;
7985;SDS011;4038;42.612;23.066;2022-08-19T08:06:25;26.73;;;24.42;;
7985;SDS011;4038;42.612;23.066;2022-08-19T08:09:10;26.30;;;23.33;;
7985;SDS011;4038;42.612;23.066;2022-08-19T08:11:40;25.70;;;23.35;;
7985;SDS011;4038;42.612;23.066;2022-08-19T08:14:13;25.00;;;22.75;;
7985;SDS011;4038;42.612;23.066;2022-08-19T08:16:40;25.52;;;23.55;;
7985;SDS011;4038;42.612;23.066;2022-08-19T08:19:07;25.13;;;23.30;;
7985;SDS011;4038;42.612;23.066;2022-08-19T08:21:33;26.33;;;24.02;;
7985;SDS011;4038;42.612;23.066;2022-08-19T08:23:59;25.45;;;23.00;;
7985;SDS011;4038;42.612;23.066;2022-08-19T08:26:24;24.98;;;22.83;;
7985;SDS011;4038;42.612;23.066;2022-08-19T08:28:51;25.83;;;23.77;;
7985;SDS011;4038;42.612;23.066;2022-08-19T08:31:18;26.08;;;23.73;;
7985;SDS011;4038;42.612;23.066;2022-08-19T08:33:44;26.25;;;24.00;;
7985;SDS011;4038;42.612;23.066;2022-08-19T08:36:11;25.33;;;23.30;;
7985;SDS011;4038;42.612;23.066;2022-08-19T08:38:39;26.55;;;24.40;;
7985;SDS011;4038;42.612;23.066;2022-08-19T08:41:12;26.80;;;24.58;;
7985;SDS011;4038;42.612;23.066;2022-08-19T08:43:44;26.08;;;23.83;;
7985;SDS011;4038;42.612;23.066;2022-08-19T08:46:13;26.45;;;24.33;;
7985;SDS011;4038;42.612;23.066;2022-08-19T08:48:57;25.02;;;23.33;;
7985;SDS011;4038;42.612;23.066;2022-08-19T08:51:28;25.95;;;24.02;;
7985;SDS011;4038;42.612;23.066;2022-08-19T08:53:59;25.52;;;23.67;;
7985;SDS011;4038;42.612;23.066;2022-08-19T08:56:26;26.25;;;24.23;;
7985;SDS011;4038;42.612;23.066;2022-08-19T08:59:00;27.17;;;24.63;;
7985;SDS011;4038;42.612;23.066;2022-08-19T09:01:28;26.92;;;24.48;;
7985;SDS011;4038;42.612;23.066;2022-08-19T09:03:54;26.33;;;23.98;;
7985;SDS011;4038;42.612;23.066;2022-08-19T09:06:37;25.95;;;24.15;;
7985;SDS011;4038;42.612;23.066;2022-08-19T09:09:24;25.65;;;23.88;;
7985;SDS011;4038;42.612;23.066;2022-08-19T09:14:45;25.88;;;23.90;;
7985;SDS011;4038;42.612;23.066;2022-08-19T09:17:12;25.45;;;23.50;;
7985;SDS011;4038;42.612;23.066;2022-08-19T09:22:39;26.73;;;24.42;;
7985;SDS011;4038;42.612;23.066;2022-08-19T09:25:09;25.35;;;23.52;;
7985;SDS011;4038;42.612;23.066;2022-08-19T09:27:36;25.73;;;23.92;;
7985;SDS011;4038;42.612;23.066;2022-08-19T09:30:03;25.58;;;23.88;;
7985;SDS011;4038;42.612;23.066;2022-08-19T09:32:31;26.00;;;24.08;;
7985;SDS011;4038;42.612;23.066;2022-08-19T09:34:58;24.85;;;23.05;;
7985;SDS011;4038;42.612;23.066;2022-08-19T09:37:25;25.85;;;23.85;;
7985;SDS011;4038;42.612;23.066;2022-08-19T09:39:51;26.17;;;24.17;;
7985;SDS011;4038;42.612;23.066;2022-08-19T09:42:17;24.92;;;23.23;;
7985;SDS011;4038;42.612;23.066;2022-08-19T09:44:44;25.52;;;23.42;;
7985;SDS011;4038;42.612;23.066;2022-08-19T09:47:11;24.92;;;22.95;;
7985;SDS011;4038;42.612;23.066;2022-08-19T09:49:37;25.60;;;23.80;;
7985;SDS011;4038;42.612;23.066;2022-08-19T09:52:04;25.65;;;23.70;;
7985;SDS011;4038;42.612;23.066;2022-08-19T09:54:30;25.83;;;24.02;;
7985;SDS011;4038;42.612;23.066;2022-08-19T09:56:58;25.88;;;23.88;;
7985;SDS011;4038;42.612;23.066;2022-08-19T09:59:27;25.98;;;24.10;;
7985;SDS011;4038;42.612;23.066;2022-08-19T10:01:53;26.30;;;24.30;;
7985;SDS011;4038;42.612;23.066;2022-08-19T10:04:19;25.50;;;23.60;;
7985;SDS011;4038;42.612;23.066;2022-08-19T10:06:47;25.92;;;24.08;;
7985;SDS011;4038;42.612;23.066;2022-08-19T10:09:14;26.58;;;24.45;;
7985;SDS011;4038;42.612;23.066;2022-08-19T10:11:43;26.27;;;24.27;;
7985;SDS011;4038;42.612;23.066;2022-08-19T10:14:14;26.52;;;24.30;;
7985;SDS011;4038;42.612;23.066;2022-08-19T10:16:42;26.88;;;24.65;;
7985;SDS011;4038;42.612;23.066;2022-08-19T10:19:08;25.80;;;23.70;;
7985;SDS011;4038;42.612;23.066;2022-08-19T10:21:34;26.00;;;24.15;;
7985;SDS011;4038;42.612;23.066;2022-08-19T10:24:01;26.95;;;25.05;;
7985;SDS011;4038;42.612;23.066;2022-08-19T10:26:38;27.05;;;25.15;;
7985;SDS011;4038;42.612;23.066;2022-08-19T10:29:07;26.15;;;24.35;;
7985;SDS011;4038;42.612;23.066;2022-08-19T10:31:33;26.52;;;24.65;;
7985;SDS011;4038;42.612;23.066;2022-08-19T10:33:59;27.30;;;25.30;;
7985;SDS011;4038;42.612;23.066;2022-08-19T10:36:26;27.15;;;25.05;;
7985;SDS011;4038;42.612;23.066;2022-08-19T10:38:58;26.67;;;24.85;;
7985;SDS011;4038;42.612;23.066;2022-08-19T10:41:29;26.85;;;24.95;;
7985;SDS011;4038;42.612;23.066;2022-08-19T10:43:58;26.23;;;24.38;;
7985;SDS011;4038;42.612;23.066;2022-08-19T10:46:28;26.25;;;24.38;;
7985;SDS011;4038;42.612;23.066;2022-08-19T10:48:57;26.70;;;24.80;;
7985;SDS011;4038;42.612;23.066;2022-08-19T10:51:23;26.30;;;24.20;;
7985;SDS011;4038;42.612;23.066;2022-08-19T10:54:08;26.42;;;24.27;;
7985;SDS011;4038;42.612;23.066;2022-08-19T10:56:33;26.63;;;24.30;;
7985;SDS011;4038;42.612;23.066;2022-08-19T10:59:25;27.70;;;24.85;;
7985;SDS011;4038;42.612;23.066;2022-08-19T11:01:54;26.05;;;24.05;;
7985;SDS011;4038;42.612;23.066;2022-08-19T11:04:24;25.88;;;23.58;;
7985;SDS011;4038;42.612;23.066;2022-08-19T11:06:50;26.60;;;24.50;;
7985;SDS011;4038;42.612;23.066;2022-08-19T11:09:16;26.15;;;24.15;;
7985;SDS011;4038;42.612;23.066;2022-08-19T11:11:44;25.30;;;23.30;;
7985;SDS011;4038;42.612;23.066;2022-08-19T11:14:14;26.00;;;24.08;;
7985;SDS011;4038;42.612;23.066;2022-08-19T11:16:44;25.77;;;23.77;;
7985;SDS011;4038;42.612;23.066;2022-08-19T11:19:10;25.65;;;23.63;;
7985;SDS011;4038;42.612;23.066;2022-08-19T11:21:43;26.75;;;24.25;;
7985;SDS011;4038;42.612;23.066;2022-08-19T11:24:11;26.95;;;24.75;;
7985;SDS011;4038;42.612;23.066;2022-08-19T11:26:40;26.55;;;24.42;;
7985;SDS011;4038;42.612;23.066;2022-08-19T11:29:11;25.35;;;23.65;;
7985;SDS011;4038;42.612;23.066;2022-08-19T11:31:42;26.33;;;24.05;;
7985;SDS011;4038;42.612;23.066;2022-08-19T11:34:28;25.55;;;23.60;;
7985;SDS011;4038;42.612;23.066;2022-08-19T11:36:54;26.13;;;23.90;;
7985;SDS011;4038;42.612;23.066;2022-08-19T11:39:23;25.83;;;23.90;;
7985;SDS011;4038;42.612;23.066;2022-08-19T11:41:50;27.02;;;24.85;;
7985;SDS011;4038;42.612;23.066;2022-08-19T11:44:15;26.80;;;24.50;;
7985;SDS011;4038;42.612;23.066;2022-08-19T11:46:42;26.65;;;24.10;;
7985;SDS011;4038;42.612;23.066;2022-08-19T11:49:11;26.30;;;24.40;;
7985;SDS011;4038;42.612;23.066;2022-08-19T11:51:38;26.15;;;24.15;;
7985;SDS011;4038;42.612;23.066;2022-08-19T11:54:06;26.98;;;24.88;;
7985;SDS011;4038;42.612;23.066;2022-08-19T11:56:32;26.10;;;24.00;;
7985;SDS011;4038;42.612;23.066;2022-08-19T11:58:58;26.35;;;24.27;;
7985;SDS011;4038;42.612;23.066;2022-08-19T12:01:26;26.52;;;24.17;;
7985;SDS011;4038;42.612;23.066;2022-08-19T12:03:53;25.92;;;23.83;;
7985;SDS011;4038;42.612;23.066;2022-08-19T12:06:21;28.50;;;25.95;;
7985;SDS011;4038;42.612;23.066;2022-08-19T12:08:50;26.20;;;24.02;;
7985;SDS011;4038;42.612;23.066;2022-08-19T12:11:16;27.45;;;25.00;;
7985;SDS011;4038;42.612;23.066;2022-08-19T12:13:41;26.42;;;24.45;;
7985;SDS011;4038;42.612;23.066;2022-08-19T12:16:15;26.35;;;24.17;;
7985;SDS011;4038;42.612;23.066;2022-08-19T12:18:52;27.73;;;25.20;;
7985;SDS011;4038;42.612;23.066;2022-08-19T12:21:19;25.92;;;23.92;;
7985;SDS011;4038;42.612;23.066;2022-08-19T12:23:48;27.25;;;24.77;;
7985;SDS011;4038;42.612;23.066;2022-08-19T12:26:15;27.35;;;25.20;;
7985;SDS011;4038;42.612;23.066;2022-08-19T12:28:41;27.92;;;25.55;;
7985;SDS011;4038;42.612;23.066;2022-08-19T12:31:07;27.15;;;24.75;;
7985;SDS011;4038;42.612;23.066;2022-08-19T12:33:32;27.65;;;25.58;;
7985;SDS011;4038;42.612;23.066;2022-08-19T12:36:05;27.00;;;24.88;;
7985;SDS011;4038;42.612;23.066;2022-08-19T12:38:32;26.92;;;24.65;;
7985;SDS011;4038;42.612;23.066;2022-08-19T12:40:59;26.13;;;24.13;;
7985;SDS011;4038;42.612;23.066;2022-08-19T12:43:25;27.25;;;24.95;;
7985;SDS011;4038;42.612;23.066;2022-08-19T12:45:51;27.80;;;25.50;;
7985;SDS011;4038;42.612;23.066;2022-08-19T12:48:17;27.67;;;25.48;;
7985;SDS011;4038;42.612;23.066;2022-08-19T12:50:43;27.35;;;24.88;;
7985;SDS011;4038;42.612;23.066;2022-08-19T12:53:10;27.10;;;25.08;;
7985;SDS011;4038;42.612;23.066;2022-08-19T12:55:36;26.65;;;24.50;;
7985;SDS011;4038;42.612;23.066;2022-08-19T12:58:02;26.38;;;24.38;;
7985;SDS011;4038;42.612;23.066;2022-08-19T13:00:28;26.75;;;24.65;;
7985;SDS011;4038;42.612;23.066;2022-08-19T13:02:53;26.40;;;24.00;;
7985;SDS011;4038;42.612;23.066;2022-08-19T13:05:20;27.63;;;25.55;;
7985;SDS011;4038;42.612;23.066;2022-08-19T13:07:48;26.25;;;24.15;;
7985;SDS011;4038;42.612;23.066;2022-08-19T13:10:16;27.05;;;24.83;;
7985;SDS011;4038;42.612;23.066;2022-08-19T13:12:45;26.50;;;24.33;;
7985;SDS011;4038;42.612;23.066;2022-08-19T13:15:12;26.80;;;24.67;;
7985;SDS011;4038;42.612;23.066;2022-08-19T13:17:39;26.45;;;24.23;;
7985;SDS011;4038;42.612;23.066;2022-08-19T13:20:05;26.90;;;24.70;;
7985;SDS011;4038;42.612;23.066;2022-08-19T13:22:33;27.23;;;24.95;;
7985;SDS011;4038;42.612;23.066;2022-08-19T13:25:00;25.30;;;23.60;;
7985;SDS011;4038;42.612;23.066;2022-08-19T13:27:26;25.50;;;23.52;;
7985;SDS011;4038;42.612;23.066;2022-08-19T13:29:52;25.30;;;23.48;;
7985;SDS011;4038;42.612;23.066;2022-08-19T13:32:35;26.15;;;23.85;;
7985;SDS011;4038;42.612;23.066;2022-08-19T13:35:20;26.23;;;24.13;;
7985;SDS011;4038;42.612;23.066;2022-08-19T13:37:45;26.33;;;24.33;;
7985;SDS011;4038;42.612;23.066;2022-08-19T13:40:15;26.85;;;24.80;;
7985;SDS011;4038;42.612;23.066;2022-08-19T13:42:43;27.67;;;25.48;;
7985;SDS011;4038;42.612;23.066;2022-08-19T13:45:12;25.55;;;23.60;;
7985;SDS011;4038;42.612;23.066;2022-08-19T13:47:39;26.65;;;24.58;;
7985;SDS011;4038;42.612;23.066;2022-08-19T13:50:12;27.13;;;24.83;;
7985;SDS011;4038;42.612;23.066;2022-08-19T13:52:40;27.42;;;25.23;;
7985;SDS011;4038;42.612;23.066;2022-08-19T13:55:06;27.02;;;24.80;;
7985;SDS011;4038;42.612;23.066;2022-08-19T13:57:33;26.80;;;24.50;;
7985;SDS011;4038;42.612;23.066;2022-08-19T13:59:59;27.50;;;25.00;;
7985;SDS011;4038;42.612;23.066;2022-08-19T14:02:25;26.85;;;24.55;;
7985;SDS011;4038;42.612;23.066;2022-08-19T14:04:51;27.42;;;24.85;;
7985;SDS011;4038;42.612;23.066;2022-08-19T14:07:17;29.95;;;27.55;;
7985;SDS011;4038;42.612;23.066;2022-08-19T14:09:42;26.90;;;24.80;;
7985;SDS011;4038;42.612;23.066;2022-08-19T14:12:07;26.83;;;24.83;;
7985;SDS011;4038;42.612;23.066;2022-08-19T14:14:36;27.95;;;25.42;;
7985;SDS011;4038;42.612;23.066;2022-08-19T14:17:05;27.33;;;25.13;;
7985;SDS011;4038;42.612;23.066;2022-08-19T14:19:32;26.77;;;24.80;;
7985;SDS011;4038;42.612;23.066;2022-08-19T14:21:57;27.15;;;24.85;;
7985;SDS011;4038;42.612;23.066;2022-08-19T14:24:23;26.83;;;24.83;;
7985;SDS011;4038;42.612;23.066;2022-08-19T14:26:48;26.63;;;24.35;;
7985;SDS011;4038;42.612;23.066;2022-08-19T14:29:13;27.40;;;24.95;;
7985;SDS011;4038;42.612;23.066;2022-08-19T14:31:39;27.65;;;25.23;;
7985;SDS011;4038;42.612;23.066;2022-08-19T14:34:08;27.50;;;25.00;;
7985;SDS011;4038;42.612;23.066;2022-08-19T14:36:35;27.10;;;25.15;;
7985;SDS011;4038;42.612;23.066;2022-08-19T14:39:01;27.92;;;25.88;;
7985;SDS011;4038;42.612;23.066;2022-08-19T14:41:26;27.90;;;25.70;;
7985;SDS011;4038;42.612;23.066;2022-08-19T14:43:52;27.75;;;25.52;;